Time;durP1;ratioP1;P1;durP2;ratioP2;P2;SDS_P1;SDS_P2;PMS_P1;PMS_P2;Temp;Humidity;BMP_temperature;BMP_pressure;BME280_temperature;BME280_humidity;BME280_pressure;Samples;Min_cycle;Max_cycle;Signal;HPM_P1;HPM_P2
2023/04/12 00:01:13;;;;;;;1.67;1.13;;;;;;;2.87;80.35;97394.66;6131043;28;20249;-90
2023/04/12 00:04:15;;;;;;;2.23;0.90;;;;;;;2.69;81.02;97379.44;6131016;28;20230;-90
2023/04/12 00:07:17;;;;;;;5.57;1.37;;;;;;;3.57;80.12;97446.75;6131067;28;20238;-90
2023/04/12 00:10:20;;;;;;;1.43;1.00;;;;;;;3.88;79.64;97490.91;6130482;28;20668;-90
2023/04/12 00:13:22;;;;;;;3.30;0.93;;;;;;;2.86;80.03;97338.63;6115031;28;20230;-91
2023/04/12 00:16:24;;;;;;;2.50;1.00;;;;;;;3.19;80.52;97420.19;6115491;28;20238;-90
2023/04/12 00:19:29;;;;;;;2.30;1.13;;;;;;;2.69;80.23;97340.81;6114787;28;20242;-91
2023/04/12 00:22:31;;;;;;;2.37;0.67;;;;;;;2.92;81.09;97410.66;6130666;28;20258;-91
2023/04/12 00:25:34;;;;;;;1.90;1.10;;;;;;;3.04;80.75;97399.34;6130270;28;20242;-90
2023/04/12 00:28:36;;;;;;;2.00;1.00;;;;;;;3.58;81.14;97468.63;6131571;28;20234;-90
2023/04/12 00:31:38;;;;;;;2.83;0.77;;;;;;;3.30;81.21;97413.53;6125487;28;20240;-90
2023/04/12 00:34:40;;;;;;;1.30;1.10;;;;;;;2.88;81.14;97359.44;6131720;28;20238;-89
2023/04/12 00:37:42;;;;;;;1.27;1.07;;;;;;;3.37;81.40;97409.09;6119040;28;20246;-90
2023/04/12 00:40:44;;;;;;;1.67;1.20;;;;;;;3.06;80.43;97341.25;6134797;28;20265;-90
2023/04/12 00:43:46;;;;;;;1.40;1.13;;;;;;;3.30;80.19;97379.28;6135190;28;20261;-90
2023/04/12 00:46:48;;;;;;;2.20;1.00;;;;;;;3.42;79.98;97380.31;6131333;28;20269;-90
2023/04/12 00:49:50;;;;;;;3.57;1.20;;;;;;;1.55;79.82;97112.19;6143034;28;20238;-90
2023/04/12 00:52:53;;;;;;;2.20;0.90;;;;;;;2.77;80.63;97343.25;6119551;28;20248;-89
2023/04/12 00:55:55;;;;;;;1.93;1.17;;;;;;;2.61;81.07;97311.25;6136598;28;20950;-89
2023/04/12 00:58:57;;;;;;;2.77;1.07;;;;;;;3.40;81.58;97456.09;6105704;29;20245;-90
2023/04/12 01:02:00;;;;;;;1.67;0.90;;;;;;;2.72;81.68;97355.38;6105688;29;20667;-90
2023/04/12 01:05:02;;;;;;;3.73;1.10;;;;;;;2.35;81.80;97294.41;6104643;29;20241;-90
2023/04/12 01:08:14;;;;;;;1.97;0.90;;;;;;;3.22;81.92;97442.69;6119592;29;20776;-90
2023/04/12 01:11:33;;;;;;;1.17;0.80;;;;;;;2.83;81.72;97383.72;6119251;29;20849;-90
2023/04/12 01:14:50;;;;;;;1.63;1.10;;;;;;;2.28;81.84;97319.88;6110613;29;20230;-89
2023/04/12 01:18:18;;;;;;;2.63;1.20;;;;;;;2.32;82.16;97342.16;6117730;29;20239;-90
2023/04/12 01:21:44;;;;;;;1.87;1.00;;;;;;;2.89;82.19;97425.00;6101893;29;20757;-90
2023/04/12 01:25:22;;;;;;;2.13;1.10;;;;;;;2.81;82.82;97418.13;6116444;29;20831;-91
2023/04/12 01:28:32;;;;;;;3.80;0.97;;;;;;;2.49;82.28;97369.69;6103187;29;20232;-89
2023/04/12 01:31:35;;;;;;;5.57;0.90;;;;;;;2.01;82.44;97318.97;6116213;29;20236;-90
2023/04/12 01:34:40;;;;;;;1.43;1.20;;;;;;;2.01;82.47;97332.09;6103003;29;20578;-90
2023/04/12 01:37:43;;;;;;;1.33;0.90;;;;;;;1.90;82.37;97333.47;6133667;28;20224;-89
2023/04/12 01:40:47;;;;;;;2.20;1.03;;;;;;;1.50;82.22;97295.72;6165505;28;20739;-89
2023/04/12 01:43:49;;;;;;;2.00;0.90;;;;;;;1.24;82.01;97270.13;6133884;28;20658;-89
2023/04/12 01:46:52;;;;;;;3.03;0.70;;;;;;;1.51;82.41;97347.19;6149082;28;20229;-90
2023/04/12 01:50:15;;;;;;;3.40;1.10;;;;;;;1.98;82.65;97417.38;6104393;29;20568;-90
2023/04/12 01:53:47;;;;;;;1.80;1.23;;;;;;;1.73;82.54;97403.91;6136739;29;20236;-89
2023/04/12 01:57:02;;;;;;;3.27;0.90;;;;;;;1.68;82.80;97423.88;6131692;28;20268;-90
2023/04/12 02:00:09;;;;;;;2.77;1.10;;;;;;;0.42;83.10;97239.25;6145820;28;20243;-90
2023/04/12 02:03:20;;;;;;;2.23;1.23;;;;;;;0.78;83.84;97305.50;6134248;28;20239;-90
2023/04/12 02:06:25;;;;;;;1.73;1.10;;;;;;;1.53;84.00;97418.72;6125529;28;20226;-89
2023/04/12 02:09:27;;;;;;;1.73;0.87;;;;;;;0.87;83.65;97331.59;6126193;28;20731;-89
2023/04/12 02:12:29;;;;;;;3.30;1.27;;;;;;;0.65;83.79;97325.56;6131209;28;20729;-90
2023/04/12 02:15:32;;;;;;;4.33;1.50;;;;;;;-0.16;83.95;97193.97;6148914;28;20254;-90
2023/04/12 02:18:34;;;;;;;6.43;4.30;;;;;;;-0.40;84.25;97168.97;6133498;28;20315;-89
2023/04/12 02:21:42;;;;;;;1.43;1.33;;;;;;;1.17;84.73;97427.47;6117220;28;20273;-89
2023/04/12 02:24:44;;;;;;;2.57;1.00;;;;;;;0.22;84.41;97296.72;6125010;28;20318;-89
2023/04/12 02:27:47;;;;;;;2.20;0.77;;;;;;;0.35;84.42;97333.53;6128243;28;20238;-90
2023/04/12 02:30:52;;;;;;;1.97;0.90;;;;;;;-0.20;84.70;97253.72;6131411;28;20714;-89
2023/04/12 02:33:56;;;;;;;1.30;1.03;;;;;;;0.29;85.45;97322.97;6134007;28;20233;-90
2023/04/12 02:36:59;;;;;;;2.53;1.10;;;;;;;0.30;85.24;97328.03;6132154;28;20242;-89
2023/04/12 02:40:08;;;;;;;2.13;1.30;;;;;;;0.38;85.07;97342.81;6118318;28;20273;-90
2023/04/12 02:43:12;;;;;;;1.13;1.00;;;;;;;0.09;85.71;97299.97;6132162;28;20270;-89
2023/04/12 02:46:22;;;;;;;1.77;1.07;;;;;;;-0.38;85.73;97216.69;6132450;28;20235;-89
2023/04/12 02:49:30;;;;;;;1.10;1.00;;;;;;;0.68;85.90;97398.56;6132488;28;20366;-90
2023/04/12 02:52:33;;;;;;;1.20;1.10;;;;;;;-1.19;85.88;97106.06;6128156;28;20581;-89
2023/04/12 02:55:45;;;;;;;1.77;1.10;;;;;;;0.29;86.09;97351.78;6117988;28;20256;-90
2023/04/12 02:58:48;;;;;;;2.33;0.93;;;;;;;0.10;86.03;97340.91;6132571;28;20234;-89
2023/04/12 03:01:59;;;;;;;2.53;1.13;;;;;;;0.28;85.97;97365.88;6123252;28;20246;-89
2023/04/12 03:05:06;;;;;;;1.87;1.03;;;;;;;-0.63;86.37;97248.41;6116364;28;20231;-89
2023/04/12 03:08:13;;;;;;;1.47;1.20;;;;;;;-0.47;86.51;97263.09;6128697;28;20226;-89
2023/04/12 03:11:24;;;;;;;2.63;1.67;;;;;;;-0.30;86.84;97295.91;6130767;28;20242;-89
2023/04/12 03:14:26;;;;;;;2.70;1.53;;;;;;;-0.43;86.91;97285.28;6131445;28;20257;-90
2023/04/12 03:17:28;;;;;;;3.67;1.43;;;;;;;-0.37;86.81;97278.50;6116712;28;20238;-89
2023/04/12 03:20:32;;;;;;;1.57;0.90;;;;;;;-0.17;86.38;97299.69;6122755;28;20253;-89
2023/04/12 03:23:41;;;;;;;1.13;1.00;;;;;;;-0.29;86.69;97288.88;6133692;28;20252;-89
2023/04/12 03:26:51;;;;;;;1.80;1.13;;;;;;;-0.02;86.79;97337.94;6116874;28;20234;-89
2023/04/12 03:29:57;;;;;;;2.23;1.50;;;;;;;-0.64;86.65;97254.63;6114595;28;20233;-89
2023/04/12 03:33:00;;;;;;;1.47;1.23;;;;;;;-0.23;86.88;97321.38;6130421;28;20266;-89
2023/04/12 03:36:04;;;;;;;3.07;1.30;;;;;;;-0.31;87.12;97314.41;6120867;28;20325;-90
2023/04/12 03:39:06;;;;;;;1.60;1.10;;;;;;;-0.76;86.66;97261.28;6130505;28;20261;-89
2023/04/12 03:42:10;;;;;;;3.13;1.30;;;;;;;0.01;87.30;97373.44;6130749;28;20683;-89
2023/04/12 03:45:34;;;;;;;1.53;1.20;;;;;;;-0.27;87.57;97336.59;6115755;28;20226;-90
2023/04/12 03:48:37;;;;;;;2.60;1.30;;;;;;;-0.37;87.15;97308.09;6131315;28;20234;-89
2023/04/12 03:51:41;;;;;;;1.43;1.10;;;;;;;-1.73;87.31;97106.31;6144955;28;20226;-90
2023/04/12 03:54:44;;;;;;;2.90;1.30;;;;;;;-1.32;87.40;97172.84;6122806;28;20710;-89
2023/04/12 03:57:50;;;;;;;2.97;1.50;;;;;;;-0.06;87.30;97354.19;6122585;28;20280;-88
2023/04/12 04:00:54;;;;;;;1.37;1.20;;;;;;;-0.73;87.05;97265.38;6119879;28;20285;-89
2023/04/12 04:03:57;;;;;;;4.73;1.40;;;;;;;-0.43;87.49;97314.06;6142318;28;20218;-89
2023/04/12 04:07:01;;;;;;;3.07;1.10;;;;;;;-2.41;87.13;96999.34;6130544;28;20233;-89
2023/04/12 04:10:12;;;;;;;2.70;1.50;;;;;;;-0.92;87.49;97237.94;6130888;28;20264;-89
2023/04/12 04:13:15;;;;;;;2.67;1.40;;;;;;;-0.51;87.90;97319.38;6111787;28;20666;-89
2023/04/12 04:16:18;;;;;;;2.63;1.30;;;;;;;-0.82;87.82;97268.06;6130729;28;20238;-89
2023/04/12 04:19:21;;;;;;;2.00;1.20;;;;;;;-0.62;87.97;97277.97;6130921;28;20246;-89
2023/04/12 04:22:23;;;;;;;2.13;1.30;;;;;;;-1.08;87.86;97205.75;6130255;28;20246;-89
2023/04/12 04:25:28;;;;;;;3.70;1.47;;;;;;;-0.93;87.99;97236.34;6143043;28;20243;-89
2023/04/12 04:28:37;;;;;;;2.63;1.40;;;;;;;-0.68;88.32;97266.44;6137976;28;20790;-89
2023/04/12 04:31:39;;;;;;;4.37;1.60;;;;;;;-0.70;88.08;97271.03;6130380;28;20230;-90
2023/04/12 04:34:43;;;;;;;3.03;1.70;;;;;;;-0.52;88.18;97302.06;6116936;28;20328;-89
2023/04/12 04:37:51;;;;;;;3.00;1.60;;;;;;;-2.03;88.23;97088.00;6116580;29;20238;-89
2023/04/12 04:40:54;;;;;;;5.30;1.97;;;;;;;-0.14;88.58;97349.06;6139144;28;20234;-89
2023/04/12 04:44:09;;;;;;;4.70;1.53;;;;;;;-0.11;88.47;97356.53;6118089;28;20230;-89
2023/04/12 04:47:17;;;;;;;4.37;2.33;;;;;;;-1.36;88.46;97155.91;6131460;28;20238;-90
2023/04/12 04:50:23;;;;;;;2.50;2.03;;;;;;;-0.06;88.53;97360.22;6116523;28;20234;-89
2023/04/12 04:53:26;;;;;;;4.07;1.60;;;;;;;-0.41;88.79;97285.09;6114950;28;20250;-89
2023/04/12 04:56:31;;;;;;;4.23;1.67;;;;;;;-0.81;88.95;97206.09;6114031;28;20250;-89
2023/04/12 04:59:33;;;;;;;3.57;1.97;;;;;;;-0.12;88.89;97290.28;6114090;28;20266;-89
2023/04/12 05:02:47;;;;;;;3.00;1.43;;;;;;;-0.20;89.23;97282.53;6147962;28;20211;-89
2023/04/12 05:05:57;;;;;;;4.67;1.63;;;;;;;-0.06;88.93;97310.47;6164025;28;20255;-89
2023/04/12 05:09:00;;;;;;;3.47;1.70;;;;;;;-0.06;88.69;97312.28;6163007;28;20225;-89
2023/04/12 05:12:06;;;;;;;3.73;1.20;;;;;;;-0.16;88.37;97290.84;6137224;28;20223;-89
2023/04/12 05:15:10;;;;;;;3.87;1.50;;;;;;;-0.12;88.66;97299.94;6117171;28;20214;-90
2023/04/12 05:18:14;;;;;;;2.93;1.73;;;;;;;0.05;89.08;97309.22;6133445;28;20219;-90
2023/04/12 05:21:17;;;;;;;4.93;1.77;;;;;;;-0.21;88.97;97259.16;6135058;28;20566;-89
2023/04/12 05:24:19;;;;;;;2.50;1.60;;;;;;;-0.19;88.89;97270.28;6135091;28;20229;-89
2023/04/12 05:27:21;;;;;;;1.43;1.23;;;;;;;0.16;88.95;97310.56;6118550;28;20827;-89
2023/04/12 05:30:25;;;;;;;4.43;1.50;;;;;;;-0.25;88.88;97229.91;6097459;28;20699;-89
2023/04/12 05:33:27;;;;;;;6.13;1.53;;;;;;;0.40;89.23;97322.50;6125979;28;20250;-89
2023/04/12 05:36:30;;;;;;;3.73;1.47;;;;;;;-1.11;89.08;97077.22;6117994;28;20234;-89
2023/04/12 05:39:33;;;;;;;1.70;1.20;;;;;;;0.15;89.35;97265.22;6124506;28;20385;-90
2023/04/12 05:42:36;;;;;;;2.97;1.43;;;;;;;0.98;89.19;97362.53;6126354;28;20231;-89
2023/04/12 05:45:39;;;;;;;5.23;1.50;;;;;;;-0.21;89.48;97159.69;6125155;28;21013;-89
2023/04/12 05:48:41;;;;;;;2.40;1.30;;;;;;;0.39;89.37;97250.09;6137141;28;20712;-90
2023/04/12 05:51:43;;;;;;;2.97;1.40;;;;;;;0.41;88.88;97267.28;6133541;28;20241;-90
2023/04/12 05:54:53;;;;;;;3.40;1.60;;;;;;;-0.16;89.07;97147.66;6133101;28;20613;-91
2023/04/12 05:57:57;;;;;;;4.87;1.53;;;;;;;0.25;89.12;97197.63;6133554;28;20239;-89
2023/04/12 06:01:01;;;;;;;1.70;1.40;;;;;;;1.22;89.05;97324.59;6125058;28;20238;-89
2023/04/12 06:04:04;;;;;;;2.93;1.70;;;;;;;1.90;87.58;97340.56;6133252;28;20646;-90
2023/04/12 06:07:08;;;;;;;1.67;1.50;;;;;;;2.33;80.45;97255.19;6132307;28;20231;-89
2023/04/12 06:10:11;;;;;;;3.03;1.00;;;;;;;3.94;75.85;97354.06;6135301;28;20261;-89
2023/04/12 06:13:13;;;;;;;5.93;2.63;;;;;;;3.87;70.76;97251.34;6136237;28;20252;-89
2023/04/12 06:16:16;;;;;;;3.83;1.03;;;;;;;4.33;70.67;97316.22;6117473;28;20683;-90
2023/04/12 06:19:19;;;;;;;2.37;1.23;;;;;;;4.62;71.17;97347.28;6133003;28;20242;-90
2023/04/12 06:22:21;;;;;;;2.30;1.10;;;;;;;4.79;66.57;97305.38;6125924;28;20226;-89
2023/04/12 06:25:23;;;;;;;3.67;1.30;;;;;;;4.50;62.85;97151.19;6116941;28;20241;-89
2023/04/12 06:28:27;;;;;;;1.73;0.70;;;;;;;5.25;62.29;97247.94;6117060;28;20239;-89
2023/04/12 06:31:30;;;;;;;1.50;0.90;;;;;;;5.48;62.43;97292.22;6130147;28;20261;-90
2023/04/12 06:34:32;;;;;;;1.70;0.83;;;;;;;5.69;61.00;97289.94;6128838;28;20243;-91
2023/04/12 06:37:39;;;;;;;2.20;1.10;;;;;;;5.30;57.80;97151.19;6108727;28;20517;-89
2023/04/12 06:40:41;;;;;;;1.53;0.90;;;;;;;6.06;59.62;97286.50;6132232;28;20314;-89
2023/04/12 06:43:43;;;;;;;2.63;1.20;;;;;;;5.72;59.94;97235.06;6132551;28;20606;-90
2023/04/12 06:46:45;;;;;;;2.53;0.80;;;;;;;5.66;60.00;97197.91;6133875;28;20779;-89
2023/04/12 06:49:47;;;;;;;2.33;0.80;;;;;;;6.06;59.50;97289.97;6132386;28;20227;-89
2023/04/12 06:52:49;;;;;;;2.63;0.90;;;;;;;5.05;59.39;97084.47;6100624;28;20235;-90
2023/04/12 06:55:52;;;;;;;1.87;0.50;;;;;;;5.04;58.22;97059.91;6123450;28;20391;-91
2023/04/12 06:58:55;;;;;;;1.30;0.70;;;;;;;6.77;58.65;97316.69;6131773;28;20237;-90
2023/04/12 07:01:58;;;;;;;1.10;0.60;;;;;;;6.35;61.63;97282.25;6144107;28;20247;-90
2023/04/12 07:05:00;;;;;;;2.53;0.60;;;;;;;6.05;62.24;97224.88;6116797;28;20255;-91
2023/04/12 07:08:03;;;;;;;0.87;0.67;;;;;;;5.47;62.83;97097.75;6115794;28;20628;-90
2023/04/12 07:11:05;;;;;;;1.37;0.70;;;;;;;6.40;63.56;97187.16;6116985;28;20713;-90
2023/04/12 07:14:22;;;;;;;1.60;0.70;;;;;;;7.22;62.80;97242.84;6126129;28;20236;-91
2023/04/12 07:17:27;;;;;;;1.20;0.70;;;;;;;7.43;59.31;97223.69;6132082;28;20743;-89
2023/04/12 07:20:29;;;;;;;0.77;0.60;;;;;;;6.79;58.79;97058.63;6132798;28;20240;-91
2023/04/12 07:23:31;;;;;;;3.37;0.93;;;;;;;7.55;57.23;97152.13;6123056;28;20240;-91
2023/04/12 07:26:33;;;;;;;2.83;1.27;;;;;;;6.24;53.93;96895.03;6115141;28;20230;-90
2023/04/12 07:29:36;;;;;;;1.80;0.80;;;;;;;9.05;53.40;97280.84;6115227;28;20769;-90
2023/04/12 07:32:38;;;;;;;3.23;1.20;;;;;;;8.17;54.31;97133.63;6130616;28;20236;-91
2023/04/12 07:35:40;;;;;;;2.93;1.00;;;;;;;8.76;51.66;97210.25;6126459;28;20244;-90
2023/04/12 07:38:42;;;;;;;2.17;1.20;;;;;;;8.66;50.74;97157.78;6129743;28;20304;-90
2023/04/12 07:41:45;;;;;;;2.07;1.10;;;;;;;8.89;50.64;97190.53;6116082;28;20238;-90
2023/04/12 07:44:47;;;;;;;2.33;1.03;;;;;;;9.59;53.04;97267.03;6115686;28;20757;-90
2023/04/12 07:47:49;;;;;;;3.73;1.27;;;;;;;7.98;52.65;96968.59;6115076;28;20230;-91
2023/04/12 07:50:52;;;;;;;3.03;1.00;;;;;;;9.76;53.53;97232.44;6130666;28;20254;-92
2023/04/12 07:53:54;;;;;;;1.23;0.90;;;;;;;9.25;52.17;97134.19;6115735;28;20247;-91
2023/04/12 07:57:01;;;;;;;3.30;1.30;;;;;;;9.76;47.32;97224.44;6115315;28;20235;-90
2023/04/12 08:00:04;;;;;;;1.13;0.83;;;;;;;9.62;48.09;97178.00;6122884;28;20318;-91
2023/04/12 08:03:15;;;;;;;3.93;1.30;;;;;;;9.68;48.69;97180.44;6131084;28;20577;-90
2023/04/12 08:06:18;;;;;;;2.57;1.20;;;;;;;9.89;50.21;97192.13;6122757;28;20579;-90
2023/04/12 08:09:20;;;;;;;3.90;1.30;;;;;;;9.13;48.20;97045.81;6130784;28;20220;-91
2023/04/12 08:12:22;;;;;;;3.47;1.63;;;;;;;10.68;49.41;97233.41;6131027;28;20232;-90
2023/04/12 08:15:24;;;;;;;2.67;1.10;;;;;;;10.05;49.09;97123.94;6114695;28;20604;-92
2023/04/12 08:18:28;;;;;;;5.67;1.40;;;;;;;10.40;47.87;97190.03;6126115;28;20317;-90
2023/04/12 08:21:30;;;;;;;1.87;1.13;;;;;;;9.48;50.87;96978.94;6115748;28;20584;-91
2023/04/12 08:24:32;;;;;;;1.73;1.17;;;;;;;11.53;47.52;97231.63;6114433;28;20307;-90
2023/04/12 08:27:34;;;;;;;2.70;1.20;;;;;;;11.09;46.23;97155.38;6116538;28;20609;-90
2023/04/12 08:30:36;;;;;;;2.97;1.27;;;;;;;11.58;45.39;97245.81;6132034;28;20285;-90
2023/04/12 08:33:38;;;;;;;3.47;1.50;;;;;;;9.42;46.30;96931.31;6129181;28;20245;-91
2023/04/12 08:36:40;;;;;;;2.27;1.43;;;;;;;10.11;49.25;97028.97;6132427;28;20345;-91
2023/04/12 08:39:43;;;;;;;3.20;1.70;;;;;;;10.99;48.98;97181.19;6133544;28;20242;-91
2023/04/12 08:42:45;;;;;;;4.13;1.40;;;;;;;11.24;47.60;97228.53;6122191;28;20240;-92
2023/04/12 08:45:48;;;;;;;3.10;1.40;;;;;;;10.82;46.13;97214.09;6130313;28;20237;-90
2023/04/12 08:48:53;;;;;;;1.80;1.10;;;;;;;9.01;46.48;96947.66;6100024;28;20272;-91
2023/04/12 08:52:01;;;;;;;3.27;1.30;;;;;;;8.96;47.48;97011.34;6135532;28;20245;-90
2023/04/12 08:55:05;;;;;;;2.83;1.30;;;;;;;7.87;48.68;96781.19;6134752;28;20336;-91
2023/04/12 08:58:08;;;;;;;1.53;1.13;;;;;;;9.69;50.23;96995.88;6134598;28;20268;-92
2023/04/12 09:01:14;;;;;;;1.80;1.30;;;;;;;9.04;49.21;96912.59;6130769;28;20268;-92
2023/04/12 09:04:16;;;;;;;3.17;1.30;;;;;;;9.55;47.51;96954.81;6134760;28;20698;-92
2023/04/12 09:07:22;;;;;;;3.20;1.20;;;;;;;9.99;47.46;96998.00;6102459;28;20247;-91
2023/04/12 09:10:35;;;;;;;3.97;1.50;;;;;;;10.77;46.39;97112.00;6104345;28;20389;-91
2023/04/12 09:13:39;;;;;;;2.40;1.10;;;;;;;11.14;45.02;97161.81;6146581;28;20284;-90
2023/04/12 09:16:41;;;;;;;2.27;1.37;;;;;;;10.32;45.63;97052.84;6180390;28;20248;-91
2023/04/12 09:19:43;;;;;;;2.93;1.20;;;;;;;11.13;46.46;97152.19;6145196;28;20254;-90
2023/04/12 09:22:46;;;;;;;2.87;1.20;;;;;;;9.28;47.94;96869.78;6156582;28;20236;-90
2023/04/12 09:25:51;;;;;;;2.10;1.00;;;;;;;10.68;47.51;97089.56;6154666;28;20269;-90
2023/04/12 09:28:55;;;;;;;3.90;1.50;;;;;;;11.15;47.32;97112.75;6135683;28;20238;-91
2023/04/12 09:32:01;;;;;;;2.60;1.27;;;;;;;11.53;44.97;97103.59;6150399;28;20690;-90
2023/04/12 09:35:04;;;;;;;2.50;1.40;;;;;;;10.05;44.90;96905.72;6161296;28;20367;-91
2023/04/12 09:38:10;;;;;;;2.57;1.43;;;;;;;10.14;45.31;96903.34;6108477;28;20229;-91
2023/04/12 09:41:21;;;;;;;1.53;1.30;;;;;;;10.21;45.30;96941.19;6121021;28;20234;-91
2023/04/12 09:44:33;;;;;;;3.53;1.57;;;;;;;11.22;45.60;97134.66;6133535;28;20231;-90
2023/04/12 09:47:39;;;;;;;2.90;1.40;;;;;;;11.02;45.29;97128.13;6136600;28;20292;-89
2023/04/12 09:50:42;;;;;;;4.37;1.77;;;;;;;10.31;46.43;97059.22;6128224;28;20640;-90
2023/04/12 09:53:47;;;;;;;2.23;1.37;;;;;;;10.94;47.24;97112.66;6133805;28;20236;-90
2023/04/12 09:56:50;;;;;;;4.77;1.57;;;;;;;10.42;47.80;97019.34;6133545;28;20776;-91
2023/04/12 09:59:55;;;;;;;2.53;1.40;;;;;;;10.65;44.45;97008.31;6118620;28;20316;-90
2023/04/12 10:02:57;;;;;;;3.37;1.50;;;;;;;9.81;46.19;96855.56;6132947;28;20238;-91
2023/04/12 10:06:03;;;;;;;4.27;1.40;;;;;;;10.88;44.24;97022.25;6125979;28;20404;-90
2023/04/12 10:09:07;;;;;;;2.17;1.60;;;;;;;9.76;44.78;96876.00;6133695;28;20324;-90
2023/04/12 10:12:10;;;;;;;1.20;1.10;;;;;;;11.01;45.16;97056.44;6130528;28;20218;-91
2023/04/12 10:15:15;;;;;;;3.93;1.10;;;;;;;9.95;44.49;96879.03;6118356;28;20227;-90
2023/04/12 10:18:21;;;;;;;5.40;1.50;;;;;;;9.32;44.21;96727.38;6117364;28;20693;-91
2023/04/12 10:21:23;;;;;;;2.73;1.30;;;;;;;11.42;43.28;97064.59;6133017;28;20229;-90
2023/04/12 10:24:27;;;;;;;2.50;1.20;;;;;;;11.03;45.52;97038.31;6132910;28;20229;-91
2023/04/12 10:27:30;;;;;;;2.07;1.23;;;;;;;10.04;45.78;96840.22;6132790;28;20254;-91
2023/04/12 10:30:33;;;;;;;2.73;1.27;;;;;;;11.22;44.84;96980.81;6123048;28;20595;-90
2023/04/12 10:33:37;;;;;;;1.23;1.13;;;;;;;11.69;42.35;97019.06;6132692;28;20226;-91
2023/04/12 10:36:57;;;;;;;3.53;1.23;;;;;;;11.51;42.97;96994.47;6129999;28;20247;-90
2023/04/12 10:40:02;;;;;;;2.20;1.23;;;;;;;11.50;43.13;97032.09;6117534;28;20231;-90
2023/04/12 10:43:22;;;;;;;3.27;1.33;;;;;;;11.78;44.21;97050.28;6117545;28;20241;-91
2023/04/12 10:46:39;;;;;;;3.67;1.67;;;;;;;11.79;43.06;97049.22;6144264;28;20236;-91
2023/04/12 10:50:23;;;;;;;2.53;1.63;;;;;;;11.31;43.63;97000.56;6116574;28;20222;-91
2023/04/12 10:53:25;;;;;;;2.13;1.40;;;;;;;10.49;43.32;96812.22;6133456;28;20304;-91
2023/04/12 10:56:30;;;;;;;2.13;1.27;;;;;;;12.10;42.19;97025.25;6117062;28;20740;-90
2023/04/12 10:59:55;;;;;;;2.97;1.60;;;;;;;12.20;44.21;97016.44;6117169;28;20245;-92
2023/04/12 11:03:10;;;;;;;3.37;1.13;;;;;;;12.40;44.18;97032.44;6131959;28;20246;-91
2023/04/12 11:06:13;;;;;;;3.40;1.27;;;;;;;11.96;40.81;96909.41;6130987;28;20242;-90
2023/04/12 11:09:42;;;;;;;2.03;1.00;;;;;;;12.51;40.79;96947.72;6132406;28;20262;-91
2023/04/12 11:13:08;;;;;;;1.93;1.20;;;;;;;13.29;40.47;97004.09;6130075;28;20710;-90
2023/04/12 11:16:13;;;;;;;3.23;1.30;;;;;;;12.71;40.35;96872.03;6131569;28;20261;-91
2023/04/12 11:19:16;;;;;;;3.03;1.30;;;;;;;13.02;37.12;96928.81;6131501;28;20579;-90
2023/04/12 11:22:20;;;;;;;2.77;1.30;;;;;;;12.29;38.80;96834.00;6132072;28;20238;-91
2023/04/12 11:25:22;;;;;;;1.87;1.10;;;;;;;12.46;37.93;96871.06;6116170;28;20703;-90
2023/04/12 11:28:28;;;;;;;3.10;1.30;;;;;;;12.09;38.71;96775.34;6131615;28;20234;-92
2023/04/12 11:31:37;;;;;;;4.03;1.37;;;;;;;11.77;38.73;96712.47;6099495;28;20242;-91
2023/04/12 11:34:42;;;;;;;3.70;1.10;;;;;;;13.15;37.79;96944.25;6132234;28;20226;-91
2023/04/12 11:37:44;;;;;;;3.03;1.23;;;;;;;12.01;38.29;96805.28;6130537;28;20248;-88
2023/04/12 11:40:47;;;;;;;3.67;1.30;;;;;;;12.98;39.45;96917.88;6131961;28;20230;-88
2023/04/12 11:43:51;;;;;;;3.43;1.10;;;;;;;12.08;37.51;96755.88;6131685;28;20227;-90
2023/04/12 11:46:54;;;;;;;2.30;1.43;;;;;;;13.11;36.41;96829.03;6131407;28;20765;-92
2023/04/12 11:49:58;;;;;;;2.47;1.10;;;;;;;13.85;35.59;96911.94;6115257;28;20234;-90
2023/04/12 11:53:12;;;;;;;2.63;1.23;;;;;;;12.66;36.59;96741.94;6122302;28;20293;-91
2023/04/12 11:56:14;;;;;;;3.80;1.40;;;;;;;14.05;35.04;96924.34;6118816;28;20628;-91
2023/04/12 11:59:16;;;;;;;2.67;1.20;;;;;;;12.19;35.83;96657.03;6115630;28;20639;-90
2023/04/12 12:02:19;;;;;;;1.97;1.20;;;;;;;12.83;34.95;96762.94;6114387;28;20222;-91
2023/04/12 12:05:24;;;;;;;5.80;1.40;;;;;;;12.50;35.31;96743.91;6130054;28;20234;-91
2023/04/12 12:08:27;;;;;;;3.27;1.37;;;;;;;13.31;34.92;96867.44;6123872;28;20308;-91
2023/04/12 12:11:30;;;;;;;1.50;1.00;;;;;;;13.30;36.81;96884.53;6129392;28;20241;-92
2023/04/12 12:14:35;;;;;;;2.50;1.23;;;;;;;13.77;37.59;96932.09;6130782;28;20234;-92
2023/04/12 12:17:37;;;;;;;3.40;1.20;;;;;;;13.25;36.58;96849.81;6126063;28;20250;-91
2023/04/12 12:20:41;;;;;;;2.57;1.20;;;;;;;13.80;35.20;96914.69;6131576;28;20269;-91
2023/04/12 12:23:44;;;;;;;3.57;1.00;;;;;;;13.23;36.24;96819.88;6128858;28;20350;-91
2023/04/12 12:26:49;;;;;;;5.17;1.20;;;;;;;13.98;34.94;96895.22;6130319;28;20234;-92
2023/04/12 12:29:53;;;;;;;2.23;0.80;;;;;;;12.69;34.39;96660.41;6114924;28;20591;-92
2023/04/12 12:32:55;;;;;;;1.67;0.90;;;;;;;13.99;35.63;96912.91;6130603;28;20633;-93
2023/04/12 12:35:57;;;;;;;3.93;1.20;;;;;;;12.06;34.54;96607.72;6146775;28;20250;-91
2023/04/12 12:39:09;;;;;;;3.50;1.30;;;;;;;13.72;34.33;96891.19;6114381;28;20333;-91
2023/04/12 12:42:12;;;;;;;4.77;1.50;;;;;;;11.60;35.31;96560.75;6129984;28;20736;-91
2023/04/12 12:45:15;;;;;;;2.77;1.27;;;;;;;12.61;34.43;96761.47;6122191;28;20686;-92
2023/04/12 12:48:19;;;;;;;3.67;1.70;;;;;;;11.56;35.42;96607.69;6114163;28;20394;-90
2023/04/12 12:51:21;;;;;;;3.93;1.47;;;;;;;12.10;35.84;96665.63;6131956;28;20237;-92
2023/04/12 12:54:24;;;;;;;1.43;1.33;;;;;;;13.48;35.64;96877.72;6146260;28;20719;-93
2023/04/12 12:57:45;;;;;;;3.53;1.33;;;;;;;12.02;35.64;96639.53;6130781;28;20241;-90
2023/04/12 13:01:06;;;;;;;3.47;1.53;;;;;;;11.47;36.08;96523.22;6126349;28;20393;-90
2023/04/12 13:04:09;;;;;;;4.13;1.40;;;;;;;12.95;35.26;96728.59;6130062;28;20733;-90
2023/04/12 13:07:11;;;;;;;3.30;1.13;;;;;;;13.46;35.88;96800.41;6129324;28;20246;-90
2023/04/12 13:10:14;;;;;;;2.53;1.00;;;;;;;13.10;35.38;96746.38;6114656;28;20234;-91
2023/04/12 13:13:16;;;;;;;2.03;1.13;;;;;;;11.83;35.81;96558.53;6129424;28;20296;-91
2023/04/12 13:16:18;;;;;;;3.00;1.03;;;;;;;13.71;35.30;96814.63;6129768;28;20558;-91
2023/04/12 13:19:20;;;;;;;3.23;1.20;;;;;;;12.66;36.18;96629.72;6129041;28;20269;-90
2023/04/12 13:22:22;;;;;;;2.20;1.47;;;;;;;11.63;33.99;96455.38;6113621;28;20745;-90
2023/04/12 13:25:25;;;;;;;5.33;1.47;;;;;;;12.14;34.70;96591.91;6128867;28;20373;-89
2023/04/12 13:28:27;;;;;;;2.63;1.43;;;;;;;12.99;35.57;96743.00;6115051;28;20832;-90
2023/04/12 13:31:29;;;;;;;3.00;1.73;;;;;;;13.69;34.93;96847.03;6112792;28;20257;-90
2023/04/12 13:34:32;;;;;;;3.23;1.37;;;;;;;12.96;36.12;96767.66;6113130;28;20246;-89
2023/04/12 13:37:34;;;;;;;4.57;1.90;;;;;;;12.39;35.52;96700.44;6116103;28;20774;-90
2023/04/12 13:40:36;;;;;;;3.97;1.37;;;;;;;11.12;35.78;96527.66;6133396;28;20741;-89
2023/04/12 13:43:39;;;;;;;4.70;1.60;;;;;;;12.90;35.63;96734.00;6102108;28;20625;-90
2023/04/12 13:46:41;;;;;;;4.27;1.40;;;;;;;12.54;35.84;96710.22;6117469;28;20745;-92
2023/04/12 13:49:44;;;;;;;0.97;0.87;;;;;;;12.87;36.46;96772.00;6136747;28;20325;-91
2023/04/12 13:52:46;;;;;;;4.13;1.97;;;;;;;12.03;35.13;96602.97;6117944;28;20325;-90
2023/04/12 13:55:49;;;;;;;1.93;1.40;;;;;;;12.28;36.56;96711.47;6139178;28;20226;-89
2023/04/12 13:58:51;;;;;;;2.70;1.20;;;;;;;12.88;36.81;96749.53;6149602;28;20726;-89
2023/04/12 14:01:53;;;;;;;2.27;1.43;;;;;;;12.55;35.63;96668.25;6149988;28;20302;-89
2023/04/12 14:04:56;;;;;;;2.53;1.47;;;;;;;13.00;35.83;96747.28;6131605;28;20234;-91
2023/04/12 14:07:58;;;;;;;4.47;1.53;;;;;;;13.10;36.76;96791.84;6136556;28;20369;-89
2023/04/12 14:11:01;;;;;;;3.10;1.10;;;;;;;12.67;36.45;96708.78;6131842;28;20242;-91
2023/04/12 14:14:03;;;;;;;4.33;1.37;;;;;;;12.65;36.41;96687.69;6118787;28;20234;-90
2023/04/12 14:17:06;;;;;;;3.03;1.50;;;;;;;13.35;37.16;96778.31;6147610;28;20722;-90
2023/04/12 14:20:12;;;;;;;2.00;1.30;;;;;;;12.64;37.00;96672.72;6103090;28;20230;-90
2023/04/12 14:23:15;;;;;;;3.43;1.77;;;;;;;11.84;36.69;96568.91;6119639;28;20230;-89
2023/04/12 14:26:18;;;;;;;3.63;2.23;;;;;;;13.22;37.11;96767.47;6132567;28;20853;-90
2023/04/12 14:29:20;;;;;;;4.43;2.20;;;;;;;11.48;36.71;96514.16;6133935;28;20330;-89
2023/04/12 14:32:22;;;;;;;3.17;2.40;;;;;;;12.58;37.07;96659.69;6132076;28;20234;-91
2023/04/12 14:35:25;;;;;;;3.20;2.03;;;;;;;13.40;37.04;96770.25;6148816;28;20245;-90